Terminal Aerodrome Forecast
Issued by NWS Twin Cities, MN

Home | Current Version | Previous Version | Text Only | Print | Product List | Glossary Off
Versions: 1 2 3 4 5 6 7 8 9 10 11 12 13 14 15 16 17 18 19 20 21 22 23 24 25 26 27

605
FTUS43 KMPX 080123 AAA
TAFMSP
TAF AMD
KMSP 080123Z 0801/0906 30020G30KT 5SM -SN OVC020
      TEMPO 0801/0803 1 1/2SM -SN SCT012 OVC018
     FM080300 31020G32KT 4SM -SN BLSN OVC015
      TEMPO 0803/0807 1SM -SN BLSN
     FM081400 33022G32KT 5SM -SN BLSN OVC020
     FM082100 32017G27KT P6SM BKN025
     FM090300 32015G24KT P6SM BKN020=

USA.gov is the U.S. government's official web portal to all federal, state and local government web resources and services.